Time;durP1;ratioP1;P1;durP2;ratioP2;P2;SDS_P1;SDS_P2;PMS_P1;PMS_P2;Temp;Humidity;BMP_temperature;BMP_pressure;BME280_temperature;BME280_humidity;BME280_pressure;Samples;Min_cycle;Max_cycle;Signal;HPM_P1;HPM_P2
2023/06/04 00:01:05;;;;;;;9.68;5.82;;;13.50;99.90;;;;;;4973951;28;20102;-80
2023/06/04 00:03:31;;;;;;;12.63;5.50;;;13.50;99.90;;;;;;4975794;28;20044;-80
2023/06/04 00:05:56;;;;;;;11.95;6.70;;;13.40;99.90;;;;;;4976604;28;20398;-80
2023/06/04 00:08:22;;;;;;;9.68;5.03;;;13.40;99.90;;;;;;4977263;28;20026;-80
2023/06/04 00:10:48;;;;;;;9.18;5.70;;;13.30;99.90;;;;;;4975821;28;20229;-80
2023/06/04 00:13:14;;;;;;;9.32;6.47;;;13.30;99.90;;;;;;4976603;28;20038;-80
2023/06/04 00:15:39;;;;;;;11.32;6.18;;;13.30;99.90;;;;;;4973784;28;20050;-80
2023/06/04 00:18:05;;;;;;;13.90;6.15;;;13.30;99.90;;;;;;4980669;28;20037;-80
2023/06/04 00:20:31;;;;;;;9.52;6.10;;;13.20;99.90;;;;;;4980502;28;20026;-80
2023/06/04 00:22:56;;;;;;;11.48;5.70;;;13.20;99.90;;;;;;4981320;28;20941;-80
2023/06/04 00:25:22;;;;;;;9.25;6.00;;;13.20;99.90;;;;;;4979596;28;20102;-80
2023/06/04 00:27:47;;;;;;;12.45;6.18;;;13.10;99.90;;;;;;4981587;28;20030;-80
2023/06/04 00:30:14;;;;;;;9.10;6.40;;;13.10;99.90;;;;;;4980794;28;20120;-80
2023/06/04 00:32:40;;;;;;;11.52;6.65;;;13.00;99.90;;;;;;4978724;28;20455;-82
2023/06/04 00:35:06;;;;;;;10.68;5.75;;;13.00;99.90;;;;;;4981898;28;20125;-81
2023/06/04 00:37:32;;;;;;;9.25;6.22;;;13.00;99.90;;;;;;4983797;28;20138;-80
2023/06/04 00:39:58;;;;;;;10.82;5.93;;;12.90;99.90;;;;;;4984760;28;20173;-81
2023/06/04 00:42:24;;;;;;;13.43;6.55;;;12.90;99.90;;;;;;4983138;28;20030;-80
2023/06/04 00:44:49;;;;;;;11.45;6.10;;;12.80;99.90;;;;;;4983486;28;20042;-80
2023/06/04 00:47:16;;;;;;;11.25;6.30;;;12.80;99.90;;;;;;4980947;28;20105;-80
2023/06/04 00:49:42;;;;;;;12.68;6.85;;;12.70;99.90;;;;;;4983195;28;20095;-80
2023/06/04 00:52:13;;;;;;;11.90;6.78;;;12.70;99.90;;;;;;4982789;28;20057;-80
2023/06/04 00:54:40;;;;;;;9.40;6.80;;;12.60;99.90;;;;;;4982315;28;20398;-80
2023/06/04 00:57:08;;;;;;;11.00;6.53;;;12.60;99.90;;;;;;4981984;28;20046;-80
2023/06/04 00:59:36;;;;;;;10.73;6.57;;;12.50;99.90;;;;;;4980337;28;20619;-80
2023/06/04 01:02:14;;;;;;;11.30;6.75;;;12.50;99.90;;;;;;4979000;28;20402;-80
2023/06/04 01:04:51;;;;;;;12.40;6.75;;;12.50;99.90;;;;;;4981265;28;20035;-80
2023/06/04 01:07:19;;;;;;;9.68;6.75;;;12.40;99.90;;;;;;4981729;28;20061;-80
2023/06/04 01:09:45;;;;;;;13.18;6.68;;;12.40;99.90;;;;;;4984385;28;20042;-80
2023/06/04 01:12:11;;;;;;;13.57;8.10;;;12.40;99.90;;;;;;4984100;28;20434;-80
2023/06/04 01:14:37;;;;;;;10.43;7.18;;;12.40;99.90;;;;;;4985674;28;20042;-80
2023/06/04 01:17:28;;;;;;;9.63;7.35;;;12.30;99.90;;;;;;4984198;28;20392;-80
2023/06/04 01:20:08;;;;;;;11.25;6.47;;;12.30;99.90;;;;;;4983281;28;20030;-80
2023/06/04 01:23:01;;;;;;;12.43;7.55;;;12.20;99.90;;;;;;4983046;28;20057;-80
2023/06/04 01:25:45;;;;;;;9.13;6.13;;;12.20;99.90;;;;;;4982627;28;20034;-80
2023/06/04 01:28:14;;;;;;;11.85;6.97;;;12.10;99.90;;;;;;4984633;28;20898;-80
2023/06/04 01:30:42;;;;;;;9.43;6.28;;;12.00;99.90;;;;;;4984092;28;20034;-80
2023/06/04 01:33:12;;;;;;;12.40;6.82;;;12.00;99.90;;;;;;4982121;28;20138;-80
2023/06/04 01:35:38;;;;;;;12.93;7.45;;;11.90;99.90;;;;;;4982609;28;20042;-80
2023/06/04 01:38:04;;;;;;;10.00;6.35;;;11.90;99.90;;;;;;4983518;28;20041;-80
2023/06/04 01:40:30;;;;;;;8.93;6.60;;;11.90;99.90;;;;;;4982951;28;20140;-80
2023/06/04 01:42:56;;;;;;;11.60;6.43;;;11.90;99.90;;;;;;4981530;28;20034;-80
2023/06/04 01:45:23;;;;;;;12.82;7.25;;;11.80;99.90;;;;;;4981726;28;20073;-80
2023/06/04 01:47:49;;;;;;;8.60;6.22;;;11.80;99.90;;;;;;4982351;28;20037;-80
2023/06/04 01:50:15;;;;;;;10.60;6.82;;;11.80;99.90;;;;;;4984116;28;20189;-80
2023/06/04 01:52:41;;;;;;;11.65;6.63;;;11.60;99.90;;;;;;4983368;28;20034;-80
2023/06/04 01:55:09;;;;;;;12.02;6.70;;;11.60;99.90;;;;;;4983490;28;20100;-80
2023/06/04 01:57:35;;;;;;;8.80;6.38;;;11.50;99.90;;;;;;4982420;28;20038;-80
2023/06/04 02:00:01;;;;;;;11.02;6.68;;;11.50;99.90;;;;;;4982928;28;20034;-80
2023/06/04 02:02:27;;;;;;;10.95;6.97;;;11.50;99.90;;;;;;4983068;28;20073;-80
2023/06/04 02:04:53;;;;;;;12.23;7.35;;;11.40;99.90;;;;;;4983290;28;20048;-80
2023/06/04 02:07:22;;;;;;;12.90;7.03;;;11.40;99.90;;;;;;4981393;28;20066;-80
2023/06/04 02:09:48;;;;;;;11.95;7.50;;;11.30;99.90;;;;;;4984285;28;20034;-80
2023/06/04 02:12:14;;;;;;;13.98;8.20;;;11.30;99.90;;;;;;4983053;28;20759;-80
2023/06/04 02:14:41;;;;;;;14.73;8.90;;;11.30;99.90;;;;;;4983232;28;20054;-79
2023/06/04 02:17:12;;;;;;;16.27;9.13;;;11.20;99.90;;;;;;4982113;28;20034;-80
2023/06/04 02:19:49;;;;;;;14.73;9.20;;;11.20;99.90;;;;;;4983717;28;20038;-80
2023/06/04 02:22:18;;;;;;;15.73;9.82;;;11.20;99.90;;;;;;4984050;28;20057;-80
2023/06/04 02:24:44;;;;;;;13.35;9.18;;;11.10;99.90;;;;;;4983776;28;20035;-80
2023/06/04 02:27:11;;;;;;;11.63;8.07;;;11.10;99.90;;;;;;4981256;28;20041;-80
2023/06/04 02:29:38;;;;;;;13.88;8.20;;;11.10;99.90;;;;;;4981998;28;20102;-80
2023/06/04 02:32:04;;;;;;;15.05;8.30;;;11.10;99.90;;;;;;4982865;28;20058;-80
2023/06/04 02:34:30;;;;;;;12.27;7.80;;;11.10;99.90;;;;;;4981478;28;20053;-80
2023/06/04 02:36:56;;;;;;;17.08;7.30;;;11.10;99.90;;;;;;4982489;28;20031;-80
2023/06/04 02:39:21;;;;;;;12.32;6.75;;;11.10;99.90;;;;;;4982397;28;20120;-80
2023/06/04 02:41:47;;;;;;;11.87;7.17;;;11.10;99.90;;;;;;4982601;28;20058;-80
2023/06/04 02:44:12;;;;;;;12.77;7.45;;;11.10;99.90;;;;;;4983722;28;20490;-80
2023/06/04 02:46:38;;;;;;;11.57;7.80;;;11.00;99.90;;;;;;4980702;28;20030;-80
2023/06/04 02:49:05;;;;;;;12.02;8.30;;;11.00;99.90;;;;;;4983316;28;20023;-80
2023/06/04 02:51:31;;;;;;;11.52;7.32;;;11.00;99.90;;;;;;4981341;28;20058;-80
2023/06/04 02:53:56;;;;;;;13.02;6.95;;;10.90;99.90;;;;;;4982667;28;20487;-80
2023/06/04 02:56:22;;;;;;;15.05;7.57;;;10.80;99.90;;;;;;4980809;28;20042;-80
2023/06/04 02:58:55;;;;;;;11.37;7.80;;;10.80;99.90;;;;;;4982674;28;20037;-80
2023/06/04 03:01:25;;;;;;;9.80;7.30;;;10.80;99.90;;;;;;4982178;28;20482;-80
2023/06/04 03:03:52;;;;;;;10.80;7.87;;;10.70;99.90;;;;;;4982494;28;20044;-80
2023/06/04 03:06:22;;;;;;;9.97;7.23;;;10.70;99.90;;;;;;4981063;28;20030;-80
2023/06/04 03:08:49;;;;;;;11.20;7.55;;;10.70;99.90;;;;;;4982125;28;20030;-80
2023/06/04 03:11:15;;;;;;;8.67;6.87;;;10.60;99.90;;;;;;4982689;28;20026;-80
2023/06/04 03:13:41;;;;;;;16.37;7.37;;;10.60;99.90;;;;;;4981981;28;20046;-80
2023/06/04 03:16:12;;;;;;;10.43;6.90;;;10.50;99.90;;;;;;4979924;28;20426;-80
2023/06/04 03:18:39;;;;;;;12.23;7.77;;;10.50;99.90;;;;;;4980863;28;20026;-80
2023/06/04 03:21:05;;;;;;;12.83;7.27;;;10.40;99.90;;;;;;4981146;28;20048;-80
2023/06/04 03:23:32;;;;;;;11.13;7.53;;;10.40;99.90;;;;;;4981093;28;20035;-80
2023/06/04 03:25:57;;;;;;;13.00;7.53;;;10.40;99.90;;;;;;4980159;28;20120;-80
2023/06/04 03:28:23;;;;;;;12.83;7.53;;;10.40;99.90;;;;;;4980395;28;20223;-79
2023/06/04 03:30:48;;;;;;;14.43;7.53;;;10.30;99.90;;;;;;4980748;28;20030;-79
2023/06/04 03:33:14;;;;;;;9.73;7.07;;;10.30;99.90;;;;;;4978115;28;20036;-79
2023/06/04 03:35:43;;;;;;;13.33;7.60;;;10.30;99.90;;;;;;4979901;28;20778;-80
2023/06/04 03:38:08;;;;;;;10.90;7.43;;;10.30;99.90;;;;;;4981317;28;20045;-79
2023/06/04 03:40:34;;;;;;;11.20;7.50;;;10.30;99.90;;;;;;4981056;28;20030;-79
2023/06/04 03:43:00;;;;;;;12.90;7.73;;;10.30;99.90;;;;;;4981387;28;20038;-80
2023/06/04 03:45:26;;;;;;;9.83;7.27;;;10.30;99.90;;;;;;4979140;28;20038;-80
2023/06/04 03:47:52;;;;;;;12.67;7.60;;;10.30;99.90;;;;;;4980714;28;20168;-79
2023/06/04 03:50:18;;;;;;;12.50;7.73;;;10.30;99.90;;;;;;4980638;28;20490;-79
2023/06/04 03:52:44;;;;;;;11.07;7.43;;;10.30;99.90;;;;;;4980705;28;20031;-80
2023/06/04 03:55:11;;;;;;;11.27;7.07;;;10.30;99.90;;;;;;4978724;28;20649;-79
2023/06/04 03:57:38;;;;;;;11.73;7.00;;;10.40;99.90;;;;;;4982959;28;21496;-80
2023/06/04 04:00:05;;;;;;;10.37;7.10;;;10.40;99.90;;;;;;4982279;28;20040;-79
2023/06/04 04:02:31;;;;;;;13.20;6.97;;;10.40;99.90;;;;;;4978926;28;21455;-79
2023/06/04 04:04:57;;;;;;;12.20;7.20;;;10.50;99.90;;;;;;4977359;28;20038;-79
2023/06/04 04:07:23;;;;;;;10.97;7.50;;;10.50;99.90;;;;;;4975919;28;20030;-79
2023/06/04 04:09:49;;;;;;;11.07;7.43;;;10.50;99.90;;;;;;4976090;28;20525;-79
2023/06/04 04:12:14;;;;;;;11.30;7.38;;;10.60;99.90;;;;;;4977986;28;20026;-79
2023/06/04 04:14:40;;;;;;;11.73;6.80;;;10.60;99.90;;;;;;4977597;28;20043;-79
2023/06/04 04:17:06;;;;;;;9.37;6.27;;;10.60;99.90;;;;;;4977893;28;20026;-78
2023/06/04 04:19:31;;;;;;;11.53;6.90;;;10.70;99.90;;;;;;4978400;28;20039;-79
2023/06/04 04:21:57;;;;;;;10.03;6.87;;;10.70;99.90;;;;;;4976040;28;20145;-79
2023/06/04 04:24:26;;;;;;;11.20;7.10;;;10.70;99.90;;;;;;4975953;28;20042;-79
2023/06/04 04:26:55;;;;;;;9.00;6.77;;;10.80;99.90;;;;;;4975271;28;21319;-79
2023/06/04 04:29:24;;;;;;;10.17;6.83;;;10.80;99.90;;;;;;4976868;28;20043;-79
2023/06/04 04:31:51;;;;;;;11.93;7.27;;;10.90;99.90;;;;;;4977194;28;20050;-79
2023/06/04 04:34:20;;;;;;;8.93;6.40;;;10.90;99.90;;;;;;4974961;28;20129;-80
2023/06/04 04:36:51;;;;;;;8.97;6.63;;;11.00;99.90;;;;;;4973139;28;21352;-80
2023/06/04 04:39:24;;;;;;;10.23;6.73;;;11.00;99.90;;;;;;4971334;28;20121;-80
2023/06/04 04:41:51;;;;;;;13.13;6.43;;;11.10;99.90;;;;;;4974631;28;20042;-79
2023/06/04 04:44:17;;;;;;;12.30;5.90;;;11.20;99.90;;;;;;4977689;28;20390;-79
2023/06/04 04:46:43;;;;;;;9.48;5.47;;;11.30;99.90;;;;;;4976869;28;20062;-79
2023/06/04 04:49:08;;;;;;;12.10;5.55;;;11.40;99.90;;;;;;4976041;28;20029;-79
2023/06/04 04:51:34;;;;;;;8.80;5.45;;;11.50;99.90;;;;;;4978758;28;20042;-79
2023/06/04 04:54:00;;;;;;;10.45;4.93;;;11.60;99.90;;;;;;4979325;28;20040;-80
2023/06/04 04:56:26;;;;;;;12.57;5.05;;;11.70;99.90;;;;;;4979094;28;20023;-81
2023/06/04 04:58:52;;;;;;;9.68;4.97;;;11.80;99.90;;;;;;4982146;28;20022;-81
2023/06/04 05:01:18;;;;;;;6.47;4.43;;;11.90;99.90;;;;;;4981902;28;20038;-81
2023/06/04 05:03:44;;;;;;;7.95;4.78;;;12.00;99.90;;;;;;4983045;28;20022;-81
2023/06/04 05:06:10;;;;;;;8.57;4.68;;;12.00;99.90;;;;;;4981039;28;20026;-81
2023/06/04 05:08:35;;;;;;;9.40;4.63;;;12.10;99.90;;;;;;4983322;28;20054;-81
2023/06/04 05:11:01;;;;;;;6.10;4.40;;;12.20;99.90;;;;;;4983397;28;20026;-82
2023/06/04 05:13:27;;;;;;;10.40;4.90;;;12.30;99.90;;;;;;4982779;28;20050;-81
2023/06/04 05:15:52;;;;;;;7.13;5.10;;;12.40;99.90;;;;;;4980642;28;20682;-82
2023/06/04 05:18:21;;;;;;;9.15;4.15;;;12.50;99.90;;;;;;4981846;28;20077;-81
2023/06/04 05:20:47;;;;;;;8.82;4.90;;;12.60;99.90;;;;;;4982462;28;20733;-81
2023/06/04 05:23:13;;;;;;;7.10;4.28;;;12.70;99.90;;;;;;4986509;28;20038;-81
2023/06/04 05:25:40;;;;;;;8.50;4.30;;;12.80;99.90;;;;;;4984727;28;20031;-81
2023/06/04 05:28:06;;;;;;;7.53;4.50;;;12.90;99.90;;;;;;4985117;28;20475;-82
2023/06/04 05:30:33;;;;;;;7.45;4.55;;;13.00;99.90;;;;;;4984968;28;20043;-81
2023/06/04 05:32:59;;;;;;;8.02;3.70;;;13.10;99.90;;;;;;4984985;28;20386;-81
2023/06/04 05:35:25;;;;;;;6.65;4.20;;;13.30;99.90;;;;;;4984664;28;20042;-82
2023/06/04 05:37:53;;;;;;;7.78;4.18;;;13.40;99.90;;;;;;4984566;28;20034;-82
2023/06/04 05:40:21;;;;;;;13.20;4.13;;;13.50;99.90;;;;;;4986938;28;20030;-81
2023/06/04 05:42:47;;;;;;;7.53;3.85;;;13.60;99.90;;;;;;4985489;28;20450;-84
2023/06/04 05:45:13;;;;;;;6.57;4.00;;;13.80;99.90;;;;;;4980886;28;20041;-81
2023/06/04 05:47:38;;;;;;;7.95;4.85;;;13.90;99.90;;;;;;4982289;28;20104;-80
2023/06/04 05:50:05;;;;;;;8.50;5.47;;;14.10;99.90;;;;;;4981542;28;20038;-81
2023/06/04 05:52:32;;;;;;;8.48;4.25;;;14.20;99.90;;;;;;4982660;28;20505;-80
2023/06/04 05:54:57;;;;;;;9.38;4.15;;;14.30;99.90;;;;;;4983530;28;20049;-80
2023/06/04 05:57:23;;;;;;;8.48;3.88;;;14.50;99.90;;;;;;4981904;28;20031;-81
2023/06/04 05:59:49;;;;;;;9.90;3.92;;;14.60;99.90;;;;;;4982570;28;20794;-81
2023/06/04 06:02:14;;;;;;;11.60;7.07;;;14.70;99.90;;;;;;4980407;28;20830;-80
2023/06/04 06:04:40;;;;;;;7.05;4.40;;;14.90;99.90;;;;;;4982478;28;20089;-80
2023/06/04 06:07:05;;;;;;;5.93;4.00;;;15.00;99.90;;;;;;4984545;28;20042;-80
2023/06/04 06:09:31;;;;;;;12.25;3.85;;;15.10;99.90;;;;;;4984486;28;20482;-81
2023/06/04 06:11:58;;;;;;;11.18;3.38;;;15.30;99.90;;;;;;4984783;28;20129;-81
2023/06/04 06:14:23;;;;;;;7.28;3.70;;;15.40;99.90;;;;;;4984992;28;20038;-81
2023/06/04 06:16:49;;;;;;;5.43;3.17;;;15.50;99.90;;;;;;4984251;28;20553;-81
2023/06/04 06:19:15;;;;;;;11.63;3.83;;;15.70;99.90;;;;;;4985224;28;20591;-80
2023/06/04 06:21:40;;;;;;;4.55;3.40;;;15.70;99.90;;;;;;4983624;28;20026;-81
2023/06/04 06:24:06;;;;;;;8.40;4.28;;;15.90;99.90;;;;;;4980460;28;20499;-77
2023/06/04 06:26:31;;;;;;;7.90;3.45;;;16.00;99.90;;;;;;4976611;28;20085;-76
2023/06/04 06:28:57;;;;;;;9.50;3.75;;;16.10;99.90;;;;;;4977740;28;20077;-76
2023/06/04 06:31:23;;;;;;;5.70;3.75;;;16.10;99.90;;;;;;4977529;28;20089;-76
2023/06/04 06:33:48;;;;;;;6.28;3.38;;;16.10;99.90;;;;;;4975691;28;20037;-78
2023/06/04 06:36:18;;;;;;;9.27;3.85;;;16.20;99.90;;;;;;4976503;28;21439;-78
2023/06/04 06:38:45;;;;;;;8.23;3.80;;;16.30;99.90;;;;;;4978176;28;20027;-78
2023/06/04 06:41:10;;;;;;;7.43;3.58;;;16.40;99.90;;;;;;4976882;28;20475;-78
2023/06/04 06:43:36;;;;;;;5.47;3.47;;;16.50;99.90;;;;;;4977920;28;20037;-76
2023/06/04 06:46:01;;;;;;;8.98;4.18;;;16.60;99.90;;;;;;4976395;28;20620;-77
2023/06/04 06:48:27;;;;;;;5.40;3.35;;;16.70;99.90;;;;;;4978333;28;20169;-77
2023/06/04 06:50:54;;;;;;;9.95;3.60;;;16.80;99.90;;;;;;4978206;28;20041;-77
2023/06/04 06:53:19;;;;;;;5.85;3.50;;;16.90;99.90;;;;;;4977573;28;20049;-75
2023/06/04 06:55:45;;;;;;;6.20;3.85;;;17.00;99.90;;;;;;4976515;28;20042;-83
2023/06/04 06:58:11;;;;;;;7.13;3.40;;;17.10;99.90;;;;;;4978225;28;20037;-75
2023/06/04 07:00:36;;;;;;;9.27;3.35;;;17.10;99.90;;;;;;4976701;28;20031;-71
2023/06/04 07:03:02;;;;;;;8.18;3.88;;;17.20;99.90;;;;;;4977961;28;20070;-72
2023/06/04 07:05:28;;;;;;;6.57;3.45;;;17.30;99.90;;;;;;4975523;28;21121;-72
2023/06/04 07:07:57;;;;;;;5.47;3.78;;;17.30;99.90;;;;;;4977462;28;20100;-72
2023/06/04 07:10:23;;;;;;;7.32;3.80;;;17.30;99.90;;;;;;4978061;28;20023;-71
2023/06/04 07:12:48;;;;;;;7.93;3.53;;;17.30;99.90;;;;;;4977396;28;20909;-72
2023/06/04 07:15:14;;;;;;;5.30;3.10;;;17.40;99.90;;;;;;4976967;28;20049;-72
2023/06/04 07:17:40;;;;;;;6.50;3.63;;;17.40;99.90;;;;;;4976465;28;20030;-73
2023/06/04 07:20:07;;;;;;;11.20;4.22;;;17.40;99.90;;;;;;4977375;28;20038;-72
2023/06/04 07:22:34;;;;;;;7.93;3.83;;;17.40;99.90;;;;;;4977395;28;20053;-72
2023/06/04 07:25:00;;;;;;;9.75;3.83;;;17.40;99.90;;;;;;4977592;28;20118;-72
2023/06/04 07:27:26;;;;;;;5.93;3.40;;;17.40;99.90;;;;;;4977854;28;20022;-74
2023/06/04 07:29:52;;;;;;;5.07;3.55;;;17.40;99.90;;;;;;4977285;28;20104;-73
2023/06/04 07:32:17;;;;;;;7.07;3.30;;;17.40;99.90;;;;;;4976803;28;20030;-72
2023/06/04 07:34:43;;;;;;;6.45;3.55;;;17.50;99.90;;;;;;4976725;28;20042;-73
2023/06/04 07:37:09;;;;;;;11.05;3.60;;;17.70;99.90;;;;;;4975909;28;20031;-72
2023/06/04 07:39:35;;;;;;;7.20;3.40;;;17.80;99.90;;;;;;4977305;28;20046;-72
2023/06/04 07:42:00;;;;;;;12.15;3.45;;;17.80;99.90;;;;;;4976251;28;20057;-73
2023/06/04 07:44:26;;;;;;;5.22;3.10;;;17.80;99.90;;;;;;4976713;28;20515;-68
2023/06/04 07:46:52;;;;;;;6.25;3.38;;;17.80;99.90;;;;;;4976222;28;20037;-72
2023/06/04 07:49:17;;;;;;;8.70;3.85;;;17.90;99.90;;;;;;4976884;28;20375;-73
2023/06/04 07:51:43;;;;;;;5.13;3.30;;;18.00;99.90;;;;;;4977959;28;20030;-72
2023/06/04 07:54:08;;;;;;;6.93;3.50;;;18.00;99.90;;;;;;4977106;28;20023;-73
2023/06/04 07:56:35;;;;;;;5.25;3.55;;;18.10;99.90;;;;;;4977042;28;20073;-72
2023/06/04 07:59:00;;;;;;;4.57;3.30;;;18.20;99.90;;;;;;4977131;28;20058;-73
2023/06/04 08:01:26;;;;;;;6.97;3.70;;;18.20;99.90;;;;;;4975225;28;20204;-72
2023/06/04 08:03:51;;;;;;;7.28;3.70;;;18.30;99.90;;;;;;4976477;28;20494;-73
2023/06/04 08:06:17;;;;;;;11.95;3.95;;;18.30;99.90;;;;;;4974949;28;20030;-76
2023/06/04 08:08:48;;;;;;;7.13;3.38;;;18.40;99.90;;;;;;4976521;28;20053;-73
2023/06/04 08:11:15;;;;;;;10.73;3.63;;;18.50;99.90;;;;;;4976869;28;20043;-72
2023/06/04 08:13:41;;;;;;;5.47;3.55;;;18.60;99.90;;;;;;4977926;28;20101;-72
2023/06/04 08:16:07;;;;;;;6.05;3.55;;;18.70;99.90;;;;;;4975928;28;20038;-73
2023/06/04 08:18:32;;;;;;;5.45;3.50;;;18.90;99.90;;;;;;4976684;28;20081;-73
2023/06/04 08:20:58;;;;;;;7.07;3.42;;;18.90;99.90;;;;;;4975973;28;20450;-72
2023/06/04 08:23:23;;;;;;;8.15;3.22;;;18.90;99.90;;;;;;4976515;28;20059;-73
2023/06/04 08:25:50;;;;;;;9.80;3.50;;;18.90;99.90;;;;;;4975773;28;20042;-72
2023/06/04 08:28:16;;;;;;;7.22;2.90;;;19.00;99.90;;;;;;4976767;28;20038;-71
2023/06/04 08:30:42;;;;;;;8.43;3.78;;;19.10;99.90;;;;;;4976979;28;20414;-81
2023/06/04 08:33:08;;;;;;;7.38;3.20;;;19.20;99.90;;;;;;4975734;28;20030;-75
2023/06/04 08:35:33;;;;;;;4.55;3.30;;;19.20;99.90;;;;;;4975575;28;21287;-75
2023/06/04 08:37:59;;;;;;;7.07;3.40;;;19.30;99.90;;;;;;4975830;28;20044;-74
2023/06/04 08:40:25;;;;;;;6.10;3.38;;;19.40;99.90;;;;;;4977149;28;20038;-74
2023/06/04 08:42:57;;;;;;;5.53;3.38;;;19.50;99.90;;;;;;4977078;28;20175;-75
2023/06/04 08:45:23;;;;;;;7.10;3.05;;;19.60;99.90;;;;;;4975055;28;20109;-74
2023/06/04 08:47:50;;;;;;;7.38;3.08;;;19.70;99.90;;;;;;4979075;28;20170;-78
2023/06/04 08:50:17;;;;;;;7.50;3.22;;;19.70;99.90;;;;;;4976287;28;20062;-76
2023/06/04 08:52:44;;;;;;;7.13;3.40;;;19.70;99.90;;;;;;4976631;28;20038;-75
2023/06/04 08:55:11;;;;;;;5.78;3.42;;;19.80;99.90;;;;;;4976870;28;20138;-74
2023/06/04 08:57:38;;;;;;;7.22;3.30;;;19.80;99.90;;;;;;4979574;28;20569;-75
2023/06/04 09:00:07;;;;;;;7.63;3.10;;;19.90;99.90;;;;;;4979721;28;20026;-71
2023/06/04 09:02:37;;;;;;;11.05;3.05;;;19.90;99.90;;;;;;4978363;28;20078;-75
2023/06/04 09:05:04;;;;;;;8.80;3.70;;;20.00;99.90;;;;;;4983120;28;21050;-86
2023/06/04 09:07:31;;;;;;;5.80;3.20;;;20.20;99.90;;;;;;4981904;28;20030;-84
2023/06/04 09:09:58;;;;;;;4.25;2.97;;;20.30;99.90;;;;;;4986822;28;20030;-84
2023/06/04 09:12:25;;;;;;;7.65;3.35;;;20.40;99.90;;;;;;4987074;28;20037;-84
2023/06/04 09:14:50;;;;;;;5.30;2.85;;;20.50;99.90;;;;;;4987026;28;20057;-84
2023/06/04 09:17:24;;;;;;;5.00;3.13;;;20.60;99.90;;;;;;4985929;28;20548;-84
2023/06/04 09:19:50;;;;;;;5.27;3.70;;;20.70;99.90;;;;;;4986191;28;20026;-84
2023/06/04 09:22:16;;;;;;;6.25;3.00;;;20.80;99.90;;;;;;4984309;28;20706;-83
2023/06/04 09:24:46;;;;;;;7.25;3.22;;;20.90;99.90;;;;;;4984576;28;20037;-84
2023/06/04 09:27:16;;;;;;;7.47;3.05;;;21.10;99.90;;;;;;4986107;28;20546;-84
2023/06/04 09:29:55;;;;;;;3.15;2.45;;;21.20;99.90;;;;;;4985059;28;20498;-84
2023/06/04 09:32:26;;;;;;;7.03;2.78;;;21.40;99.90;;;;;;4986464;28;20026;-84
2023/06/04 09:34:52;;;;;;;3.90;2.60;;;21.60;99.90;;;;;;4984446;28;20166;-84
2023/06/04 09:37:19;;;;;;;6.10;3.17;;;21.80;99.90;;;;;;4983848;28;20022;-84
2023/06/04 09:39:55;;;;;;;8.40;3.17;;;21.90;99.90;;;;;;4986252;28;20041;-84
2023/06/04 09:42:22;;;;;;;5.80;3.00;;;22.20;99.90;;;;;;4983236;28;20075;-84
2023/06/04 09:44:47;;;;;;;5.85;3.10;;;22.60;99.90;;;;;;4980739;28;20395;-85
2023/06/04 09:47:13;;;;;;;8.65;3.65;;;22.80;99.90;;;;;;4981092;28;20038;-84
2023/06/04 09:49:47;;;;;;;7.72;3.30;;;22.90;99.90;;;;;;4983034;28;20108;-84
2023/06/04 09:52:13;;;;;;;7.43;3.50;;;23.10;99.90;;;;;;4981262;28;20803;-84
2023/06/04 09:54:41;;;;;;;5.88;3.20;;;23.40;99.90;;;;;;4981696;28;20045;-84
2023/06/04 09:57:18;;;;;;;7.97;3.13;;;23.60;99.90;;;;;;4980266;28;20534;-84
2023/06/04 09:59:45;;;;;;;4.80;3.22;;;23.60;99.90;;;;;;4983123;28;20030;-84
2023/06/04 10:02:18;;;;;;;4.35;2.90;;;23.70;99.90;;;;;;4981496;28;20095;-85
2023/06/04 10:04:53;;;;;;;8.07;3.10;;;24.00;99.90;;;;;;4980432;28;20032;-84
2023/06/04 10:07:19;;;;;;;6.20;2.80;;;24.20;99.30;;;;;;4978679;28;20038;-85
2023/06/04 10:09:47;;;;;;;5.60;2.88;;;24.30;97.20;;;;;;4978952;28;20097;-85
2023/06/04 10:12:17;;;;;;;6.25;2.95;;;24.20;97.50;;;;;;4976859;28;20037;-85
2023/06/04 10:14:52;;;;;;;5.80;2.70;;;24.40;98.60;;;;;;4978416;28;20043;-84
2023/06/04 10:17:22;;;;;;;11.75;3.40;;;24.60;96.90;;;;;;4976700;28;20094;-85
2023/06/04 10:19:51;;;;;;;5.85;3.40;;;25.00;95.50;;;;;;4977143;28;20037;-84
2023/06/04 10:22:17;;;;;;;6.63;2.70;;;25.10;95.30;;;;;;4979927;28;20036;-85
2023/06/04 10:24:44;;;;;;;6.53;2.97;;;25.10;95.50;;;;;;4978921;28;20038;-85
2023/06/04 10:27:12;;;;;;;6.60;3.08;;;24.90;95.90;;;;;;4977082;28;20030;-84
2023/06/04 10:29:42;;;;;;;6.15;3.20;;;24.90;95.40;;;;;;4978664;28;20050;-85
2023/06/04 10:32:07;;;;;;;4.22;3.05;;;24.80;93.60;;;;;;4978509;28;20045;-84
2023/06/04 10:34:34;;;;;;;7.60;3.35;;;24.60;94.40;;;;;;4986528;28;20042;-85
2023/06/04 10:37:00;;;;;;;7.20;3.40;;;24.50;93.10;;;;;;4981502;28;20030;-85
2023/06/04 10:39:29;;;;;;;5.88;3.28;;;24.60;92.90;;;;;;4988938;28;20662;-85
2023/06/04 10:42:05;;;;;;;6.40;3.22;;;24.70;93.70;;;;;;4990821;28;20030;-84
2023/06/04 10:44:43;;;;;;;6.25;3.50;;;24.40;93.20;;;;;;4976618;28;20027;-84
2023/06/04 10:47:30;;;;;;;7.30;3.50;;;24.00;93.20;;;;;;4978373;28;20169;-85
2023/06/04 10:50:12;;;;;;;5.35;3.58;;;24.00;94.60;;;;;;4978022;28;20026;-85
2023/06/04 10:52:50;;;;;;;10.40;3.83;;;24.10;93.50;;;;;;4978731;28;20128;-84
2023/06/04 10:55:15;;;;;;;5.82;3.33;;;24.50;93.80;;;;;;4976082;28;20042;-85
2023/06/04 10:58:00;;;;;;;5.30;3.25;;;24.70;93.30;;;;;;4976077;28;20845;-85
2023/06/04 11:00:41;;;;;;;6.10;3.53;;;25.00;93.50;;;;;;4977098;28;20022;-85
2023/06/04 11:03:07;;;;;;;8.32;3.40;;;25.20;91.60;;;;;;4979028;28;20030;-85
2023/06/04 11:05:43;;;;;;;6.50;3.42;;;25.40;90.40;;;;;;4976212;28;20141;-84
2023/06/04 11:08:11;;;;;;;7.53;3.63;;;25.40;91.60;;;;;;4975809;28;20077;-85
2023/06/04 11:10:38;;;;;;;4.70;3.45;;;25.60;90.30;;;;;;4975554;28;20210;-85
2023/06/04 11:13:05;;;;;;;8.43;3.67;;;25.80;88.40;;;;;;4976779;28;20035;-84
2023/06/04 11:15:44;;;;;;;5.30;3.28;;;25.90;87.90;;;;;;4976783;28;20073;-84
2023/06/04 11:18:20;;;;;;;7.03;3.38;;;26.20;90.20;;;;;;4977622;28;20517;-85
2023/06/04 11:20:58;;;;;;;6.10;3.58;;;26.30;90.20;;;;;;4974773;28;20495;-85
2023/06/04 11:23:23;;;;;;;7.55;3.50;;;26.30;90.00;;;;;;4977012;28;20802;-84
2023/06/04 11:25:52;;;;;;;5.97;3.22;;;26.10;87.90;;;;;;4974824;28;20026;-85
2023/06/04 11:28:18;;;;;;;8.18;3.40;;;26.00;86.00;;;;;;4974556;28;20026;-85
2023/06/04 11:30:55;;;;;;;6.85;3.40;;;26.20;87.80;;;;;;4975755;28;20035;-85
2023/06/04 11:33:20;;;;;;;8.40;3.75;;;26.30;88.30;;;;;;4975532;28;20049;-84
2023/06/04 11:35:46;;;;;;;5.97;3.50;;;26.40;84.10;;;;;;4976147;28;20038;-85
2023/06/04 11:38:11;;;;;;;6.97;3.53;;;26.30;85.60;;;;;;4977531;28;20089;-84
2023/06/04 11:40:37;;;;;;;7.50;3.95;;;26.50;85.80;;;;;;4975977;28;20030;-85
2023/06/04 11:43:03;;;;;;;9.48;3.53;;;26.70;84.50;;;;;;4975972;28;20031;-85
2023/06/04 11:45:30;;;;;;;4.75;3.10;;;26.70;82.20;;;;;;4974971;28;20454;-85
2023/06/04 11:47:57;;;;;;;5.25;3.00;;;26.70;83.70;;;;;;4976211;28;20161;-85
2023/06/04 11:50:27;;;;;;;4.63;3.00;;;26.70;81.50;;;;;;4975500;28;20038;-84
2023/06/04 11:52:53;;;;;;;5.68;3.25;;;26.90;83.70;;;;;;4976133;28;20046;-84
2023/06/04 11:55:22;;;;;;;7.70;3.35;;;26.80;85.40;;;;;;4977272;28;20037;-85
2023/06/04 11:57:49;;;;;;;5.32;3.47;;;27.10;81.10;;;;;;4978699;28;20483;-84
2023/06/04 12:00:17;;;;;;;8.45;3.40;;;26.90;80.30;;;;;;4976119;28;20038;-85
2023/06/04 12:02:55;;;;;;;4.95;3.10;;;27.00;78.40;;;;;;4981357;28;20052;-85
2023/06/04 12:05:23;;;;;;;6.20;3.33;;;27.20;79.60;;;;;;4976038;28;20121;-85
2023/06/04 12:07:50;;;;;;;6.57;3.58;;;27.20;76.90;;;;;;4971325;28;20065;-85
2023/06/04 12:10:20;;;;;;;6.90;3.25;;;27.30;74.20;;;;;;4974123;28;20079;-75
2023/06/04 12:12:46;;;;;;;4.93;3.38;;;27.20;75.00;;;;;;4976016;28;20057;-76
2023/06/04 12:15:19;;;;;;;5.97;3.40;;;27.30;78.10;;;;;;4974924;28;20130;-76
2023/06/04 12:17:52;;;;;;;4.80;3.50;;;27.60;74.40;;;;;;4976758;28;20036;-76
2023/06/04 12:20:18;;;;;;;3.90;3.40;;;27.60;76.00;;;;;;4975051;28;20035;-76
2023/06/04 12:22:46;;;;;;;5.75;3.35;;;27.50;73.50;;;;;;4977087;28;20027;-76
2023/06/04 12:25:12;;;;;;;9.20;3.67;;;27.40;77.40;;;;;;4974582;28;20059;-76
2023/06/04 12:27:47;;;;;;;7.28;3.42;;;27.70;73.10;;;;;;4974412;28;20112;-75
2023/06/04 12:30:13;;;;;;;7.40;3.40;;;27.60;75.70;;;;;;4974645;28;20042;-79
2023/06/04 12:32:39;;;;;;;7.35;3.90;;;27.70;75.90;;;;;;4979075;28;20022;-76
2023/06/04 12:35:05;;;;;;;6.30;3.97;;;27.30;76.30;;;;;;4976121;28;20594;-76
2023/06/04 12:37:30;;;;;;;5.55;3.25;;;27.30;73.40;;;;;;4977568;28;20398;-77
2023/06/04 12:39:56;;;;;;;5.43;3.25;;;27.40;75.30;;;;;;4978896;28;20038;-76
2023/06/04 12:42:22;;;;;;;8.65;3.17;;;27.20;75.00;;;;;;4978068;28;20033;-76
2023/06/04 12:44:48;;;;;;;5.32;3.28;;;27.20;77.30;;;;;;4974385;28;20397;-77